• Join FlightAware (Why Join?)
  • Login
  • US Flag 
10:16PM EST


 

Airport Tracker/Info


-or-


 

Live Flight TrackerFlight Track Log ✈ JZA8145 ✈ 13-May-2013 ✈ CYEG - CYYC

Flight Track Log - Related Links

Times and Time Zones

All times are in EDT time to prevent confusion due to time zone crossing. See the JZA8145 flight status page for this flight to view local times or setup timezone preferences in your user account.

Time Position Orientation Groundspeed Altitude Reporting Facility
EDT Latitude Longitude Course Direction KTS MPH feet Rate Location/Type
03:05PM 53.2833 -113.6333 167° South 130 150 3,200  Level Edmonton Center
03:06PM 53.2333 -113.6500 191° South 140 161 4,900 1,560 Climbing Edmonton Center
03:07PM 53.2000 -113.6500 180° South 160 184 6,400 1,440 Climbing Edmonton Center
03:08PM 53.1500 -113.6333 169° South 160 184 7,800 1,200 Climbing Edmonton Center
03:09PM 53.1186 -113.8445 167° South  Level FlightAware Approximate
03:09PM 53.1000 -113.6333 180° South 160 184 8,900  Level Edmonton Center
03:10PM 53.0501 -113.8192 167° South  Level FlightAware Approximate
03:10PM 53.0500 -113.6167 169° South 210 242 9,000  Level Edmonton Center
03:11PM 52.9816 -113.7939 167° South  Level FlightAware Approximate
03:11PM 52.9833 -113.6333 189° South 240 276 9,000  Level Edmonton Center
03:12PM 52.9167 -113.6167 171° South 250 288 9,000  Level Edmonton Center
03:13PM 52.8500 -113.6333 189° South 250 288 9,000  Level Edmonton Center
03:14PM 52.7833 -113.6167 171° South 250 288 9,000  Level Edmonton Center
03:15PM 52.7167 -113.6333 189° South 250 288 9,000  Level Edmonton Center
03:16PM 52.6500 -113.6167 171° South 250 288 9,000  Level Edmonton Center
03:17PM 52.5667 -113.6333 187° South 250 288 9,000  Level Edmonton Center
03:18PM 52.5000 -113.6167 171° South 260 299 9,000  Level Edmonton Center
03:19PM 52.4167 -113.6167 180° South 260 299 9,000  Level Edmonton Center
03:20PM 52.3500 -113.6167 180° South 260 299 9,000  Level Edmonton Center
03:21PM 52.2667 -113.6167 180° South 250 288 9,000  Level Edmonton Center
03:22PM 52.2000 -113.6167 180° South 240 276 9,000  Level Edmonton Center
03:23PM 52.1333 -113.6167 180° South 230 265 9,000  Level Edmonton Center
03:24PM 52.0667 -113.6167 180° South 230 265 9,000  Level Edmonton Center
03:25PM 52.0167 -113.6333 192° South 230 265 9,000  Level Edmonton Center
03:26PM 51.9500 -113.6167 171° South 220 253 9,000  Level Edmonton Center
03:27PM 51.8833 -113.6000 171° South 220 253 9,000  Level Edmonton Center
03:28PM 51.8333 -113.6167 192° South 230 265 9,000  Level Edmonton Center
03:29PM 51.7667 -113.6333 189° South 230 265 9,000  Level Edmonton Center
03:30PM 51.7167 -113.6500 192° South 230 265 9,000  Level Edmonton Center
03:31PM 51.6333 -113.6833 194° South 230 265 9,000  Level Edmonton Center
03:32PM 51.5667 -113.7000 189° South 240 276 9,000  Level Edmonton Center
03:33PM 51.5167 -113.7500 212° Southwest 230 265 9,000  Level Edmonton Center
03:34PM 51.4500 -113.7500 180° South 240 276 9,000 -180 Level Edmonton Center
03:35PM 51.3833 -113.7667 189° South 240 276 8,700 -720 Descending Edmonton Center
03:36PM 51.3167 -113.7500 171° South 260 299 7,600 -1,020 Descending Edmonton Center
03:37PM 51.2500 -113.7500 180° South 250 288 6,700 -1,080 Descending Edmonton Center
03:38PM 51.1833 -113.7500 180° South 240 276 5,500 -900 Descending Edmonton Center
03:39PM 51.1167 -113.8000 205° Southwest 210 242 4,900 -300 Descending Edmonton Center
03:40PM 51.1000 -113.8667 248° West 180 207 4,900  Level Edmonton Center
03:41PM 51.0667 -113.9167 223° Southwest 160 184 4,900 -300 Level Edmonton Center
03:42PM 51.0667 -113.9833 270° West 150 173 4,300 -720 Descending Edmonton Center
03:43PM 51.0833 -114.0333 298° West 110 127 3,500 -840 Descending Edmonton Center